Time;durP1;ratioP1;P1;durP2;ratioP2;P2;SDS_P1;SDS_P2;PMS_P1;PMS_P2;Temp;Humidity;BMP_temperature;BMP_pressure;BME280_temperature;BME280_humidity;BME280_pressure;Samples;Min_cycle;Max_cycle;Signal;HPM_P1;HPM_P2
2023/06/30 00:03:24;;;;;;;5.18;1.67;;;;;;;20.52;44.63;97374.84;10608813;27;20401;-73
2023/06/30 00:08:48;;;;;;;4.80;1.25;;;;;;;20.51;44.70;97371.28;10596485;27;20063;-73
2023/06/30 00:14:08;;;;;;;3.97;1.38;;;;;;;20.39;44.63;97362.50;10554097;28;20111;-73
2023/06/30 00:19:29;;;;;;;2.63;1.02;;;;;;;20.42;45.07;97354.75;10562484;28;20055;-72
2023/06/30 00:24:54;;;;;;;4.10;0.90;;;;;;;20.45;45.19;97354.13;10599150;27;20067;-72
2023/06/30 00:30:14;;;;;;;2.53;1.13;;;;;;;20.55;44.95;97348.69;10595911;27;20499;-73
2023/06/30 00:35:35;;;;;;;3.38;1.20;;;;;;;20.58;44.57;97347.38;10608622;27;20120;-73
2023/06/30 00:40:55;;;;;;;4.10;1.10;;;;;;;20.48;44.87;97340.75;10618284;27;20043;-73
2023/06/30 00:46:18;;;;;;;3.35;1.45;;;;;;;20.30;45.08;97338.91;10580927;27;20043;-73
2023/06/30 00:51:40;;;;;;;2.73;0.90;;;;;;;20.09;45.63;97339.84;10578060;27;20068;-73
2023/06/30 00:57:04;;;;;;;3.00;1.10;;;;;;;19.97;46.11;97336.69;10566598;28;20039;-72
2023/06/30 01:02:27;;;;;;;3.67;1.30;;;;;;;19.98;46.08;97330.38;10551774;28;20055;-72
2023/06/30 01:07:53;;;;;;;2.17;1.03;;;;;;;19.97;46.63;97320.41;10552536;28;20051;-72
2023/06/30 01:13:14;;;;;;;3.92;1.17;;;;;;;20.00;46.34;97315.53;10566273;28;20114;-72
2023/06/30 01:18:36;;;;;;;3.60;1.20;;;;;;;20.02;46.46;97312.75;10551300;28;20055;-72
2023/06/30 01:24:02;;;;;;;5.03;1.20;;;;;;;19.87;46.80;97310.97;10563337;28;20194;-72
2023/06/30 01:29:23;;;;;;;3.38;1.48;;;;;;;19.80;46.97;97306.56;10566265;28;20043;-73
2023/06/30 01:34:44;;;;;;;2.85;1.20;;;;;;;19.71;46.98;97297.88;10543850;28;20089;-73
2023/06/30 01:40:05;;;;;;;2.03;1.15;;;;;;;19.65;47.34;97302.66;10565348;28;20043;-73
2023/06/30 01:45:26;;;;;;;5.43;1.13;;;;;;;19.67;47.28;97300.56;10551286;28;20043;-73
2023/06/30 01:50:47;;;;;;;2.72;0.93;;;;;;;19.75;47.26;97285.19;10537183;28;20114;-73
2023/06/30 01:56:08;;;;;;;5.07;1.13;;;;;;;19.79;47.06;97293.78;10561003;28;20127;-73
2023/06/30 02:01:29;;;;;;;2.45;1.20;;;;;;;19.82;47.09;97290.34;10550692;28;20067;-73
2023/06/30 02:06:49;;;;;;;2.67;1.00;;;;;;;19.82;47.04;97292.44;10564952;28;20119;-73
2023/06/30 02:12:10;;;;;;;2.33;1.05;;;;;;;19.85;47.07;97276.94;10550977;28;20039;-73
2023/06/30 02:17:32;;;;;;;2.92;1.00;;;;;;;19.91;46.96;97279.91;10580162;28;20035;-73
2023/06/30 02:22:53;;;;;;;1.77;1.00;;;;;;;19.96;47.23;97278.59;10592220;28;20473;-73
2023/06/30 02:28:14;;;;;;;3.47;1.02;;;;;;;20.04;47.06;97272.41;10624764;27;20188;-73
2023/06/30 02:33:35;;;;;;;3.22;1.00;;;;;;;20.09;47.13;97263.34;10603991;27;20081;-73
2023/06/30 02:38:55;;;;;;;2.72;0.98;;;;;;;20.13;46.75;97263.44;10600109;27;20059;-73
2023/06/30 02:44:16;;;;;;;3.20;0.82;;;;;;;20.12;46.83;97256.31;10614107;27;20127;-73
2023/06/30 02:49:38;;;;;;;3.42;1.15;;;;;;;20.10;46.96;97250.63;10573512;27;20515;-73
2023/06/30 02:54:59;;;;;;;2.55;0.90;;;;;;;20.12;47.35;97245.00;10613986;27;20090;-73
2023/06/30 03:00:20;;;;;;;5.40;1.20;;;;;;;20.19;47.15;97252.25;10585019;27;20047;-73
2023/06/30 03:05:40;;;;;;;2.33;1.05;;;;;;;20.24;47.02;97261.53;10545328;28;20075;-73
2023/06/30 03:11:03;;;;;;;2.83;1.08;;;;;;;20.26;47.19;97250.94;10528348;28;20494;-73
2023/06/30 03:16:23;;;;;;;4.68;1.02;;;;;;;20.33;47.02;97251.09;10513908;28;20067;-72
2023/06/30 03:21:45;;;;;;;1.77;0.85;;;;;;;20.35;47.21;97253.97;10548044;28;20074;-73
2023/06/30 03:27:06;;;;;;;2.17;1.00;;;;;;;20.37;47.34;97251.19;10514089;28;20068;-73
2023/06/30 03:32:27;;;;;;;1.58;0.90;;;;;;;20.45;47.12;97248.53;10556494;28;20070;-73
2023/06/30 03:37:48;;;;;;;3.05;0.82;;;;;;;20.46;46.74;97245.06;10548062;28;20078;-73
2023/06/30 03:43:10;;;;;;;2.40;1.17;;;;;;;20.51;46.87;97243.72;10526945;28;20120;-74
2023/06/30 03:48:31;;;;;;;2.97;1.10;;;;;;;20.52;47.00;97236.66;10513161;28;20466;-73
2023/06/30 03:53:51;;;;;;;2.75;1.13;;;;;;;20.47;46.69;97248.59;10542241;28;20135;-73
2023/06/30 03:59:14;;;;;;;3.05;1.00;;;;;;;20.53;46.70;97252.25;10542035;28;20051;-74
2023/06/30 04:04:35;;;;;;;2.33;0.95;;;;;;;20.69;46.73;97234.88;10558547;27;20151;-74
2023/06/30 04:09:57;;;;;;;2.78;0.98;;;;;;;20.90;46.79;97246.59;10586389;27;20515;-74
2023/06/30 04:15:19;;;;;;;1.85;1.10;;;;;;;21.06;46.78;97255.44;10623715;27;20495;-74
2023/06/30 04:20:40;;;;;;;3.90;1.67;;;;;;;21.12;46.48;97255.53;10620717;27;20449;-73
2023/06/30 04:26:01;;;;;;;3.53;1.55;;;;;;;21.27;46.51;97248.75;10622722;27;20043;-74
2023/06/30 04:31:21;;;;;;;3.97;1.38;;;;;;;21.41;46.22;97245.41;10566365;27;20119;-73
2023/06/30 04:36:42;;;;;;;3.30;1.13;;;;;;;21.55;46.18;97242.13;10580555;27;20043;-75
2023/06/30 04:42:04;;;;;;;5.07;1.20;;;;;;;21.70;45.89;97249.44;10583164;27;20067;-76
2023/06/30 04:47:27;;;;;;;5.00;1.25;;;;;;;21.97;45.78;97251.28;10609894;27;20445;-72
2023/06/30 04:52:48;;;;;;;3.47;1.27;;;;;;;22.23;45.10;97253.13;10568696;27;20043;-74
2023/06/30 04:58:09;;;;;;;3.00;1.33;;;;;;;22.17;45.11;97244.50;10580904;27;20046;-73
2023/06/30 05:03:30;;;;;;;3.50;1.33;;;;;;;22.09;44.91;97256.47;10587077;27;20060;-74
2023/06/30 05:08:50;;;;;;;3.50;1.48;;;;;;;21.83;44.81;97251.09;10567511;27;20465;-75
2023/06/30 05:14:11;;;;;;;3.67;1.30;;;;;;;21.73;45.02;97239.56;10592532;27;20039;-71
2023/06/30 05:19:32;;;;;;;5.70;1.75;;;;;;;21.43;45.35;97245.47;10568957;28;20047;-75
2023/06/30 05:24:53;;;;;;;3.33;1.13;;;;;;;21.47;46.00;97247.66;10589854;28;20040;-74
2023/06/30 05:30:13;;;;;;;4.80;1.45;;;;;;;21.56;45.97;97252.78;10582280;28;20043;-70
2023/06/30 05:35:34;;;;;;;4.32;1.33;;;;;;;21.63;46.16;97242.25;10581028;28;20200;-73
2023/06/30 05:40:56;;;;;;;4.68;1.23;;;;;;;21.89;46.15;97256.13;10577278;28;20050;-70
2023/06/30 05:46:17;;;;;;;3.75;1.23;;;;;;;22.22;45.79;97243.16;10597547;28;20047;-72
2023/06/30 05:51:38;;;;;;;2.95;1.30;;;;;;;22.68;45.53;97243.03;10588830;28;20070;-73
2023/06/30 05:56:59;;;;;;;4.63;1.20;;;;;;;23.12;44.96;97248.53;10593097;28;20040;-73
2023/06/30 06:02:19;;;;;;;7.85;1.60;;;;;;;23.93;44.60;97264.91;10580241;27;20056;-72
2023/06/30 06:07:40;;;;;;;5.13;1.55;;;;;;;24.73;43.27;97249.00;10586783;27;20043;-73
2023/06/30 06:13:01;;;;;;;5.00;1.58;;;;;;;24.90;42.47;97246.91;10601322;27;20039;-73
2023/06/30 06:18:22;;;;;;;2.65;1.10;;;;;;;24.58;41.93;97253.94;10615166;27;20066;-73
2023/06/30 06:23:43;;;;;;;3.33;1.10;;;;;;;24.34;41.47;97260.25;10600704;27;20088;-73
2023/06/30 06:29:04;;;;;;;4.80;1.35;;;;;;;24.18;41.29;97260.81;10614430;27;20473;-73
2023/06/30 06:34:24;;;;;;;2.75;1.25;;;;;;;23.92;41.01;97274.88;10629835;27;20063;-73
2023/06/30 06:39:45;;;;;;;3.03;1.15;;;;;;;23.73;40.92;97276.88;10585719;27;20043;-72
2023/06/30 06:45:06;;;;;;;4.93;1.83;;;;;;;23.71;41.26;97274.03;10613892;27;20167;-72
2023/06/30 06:50:27;;;;;;;3.53;1.35;;;;;;;23.85;41.08;97284.84;10599268;27;20088;-72
2023/06/30 06:55:48;;;;;;;6.93;1.90;;;;;;;24.07;40.35;97290.69;10585133;27;20063;-73
2023/06/30 07:01:09;;;;;;;3.90;1.55;;;;;;;24.21;40.04;97287.22;10585015;27;20485;-73
2023/06/30 07:06:30;;;;;;;3.20;1.90;;;;;;;24.14;39.75;97283.63;10607867;27;20497;-73
2023/06/30 07:11:51;;;;;;;4.47;1.70;;;;;;;24.15;39.65;97284.34;10598391;27;20050;-73
2023/06/30 07:17:12;;;;;;;2.10;1.33;;;;;;;24.33;39.65;97298.03;10598299;27;20450;-73
2023/06/30 07:22:33;;;;;;;7.47;1.92;;;;;;;24.65;39.45;97291.78;10598174;27;20533;-73
2023/06/30 07:27:56;;;;;;;4.85;1.58;;;;;;;24.89;39.44;97286.16;10584394;27;20050;-73
2023/06/30 07:33:17;;;;;;;5.38;1.33;;;;;;;24.92;39.40;97286.91;10598254;27;20046;-73
2023/06/30 07:38:38;;;;;;;5.20;1.45;;;;;;;24.64;39.18;97284.66;10597947;27;20043;-72
2023/06/30 07:43:59;;;;;;;9.15;1.67;;;;;;;24.15;40.37;97293.59;10611895;27;20096;-73
2023/06/30 07:49:21;;;;;;;4.40;1.70;;;;;;;23.67;40.81;97293.94;10611387;27;20062;-73
2023/06/30 07:54:43;;;;;;;3.35;1.58;;;;;;;23.03;41.51;97303.22;10597988;27;20050;-73
2023/06/30 08:00:05;;;;;;;6.55;1.80;;;;;;;22.78;42.50;97307.88;10626534;27;20046;-73
2023/06/30 08:05:32;;;;;;;3.53;1.90;;;;;;;22.63;43.42;97297.72;10611616;27;20492;-73
2023/06/30 08:10:52;;;;;;;6.88;1.70;;;;;;;22.52;43.68;97302.56;10596009;27;20066;-73
2023/06/30 08:16:15;;;;;;;8.13;2.03;;;;;;;22.45;44.13;97292.50;10595796;27;20043;-73
2023/06/30 08:21:35;;;;;;;3.20;1.70;;;;;;;22.53;44.43;97293.34;10610584;27;20043;-72
2023/06/30 08:26:56;;;;;;;5.10;1.73;;;;;;;22.69;44.53;97280.75;10595168;27;20298;-72
2023/06/30 08:32:17;;;;;;;4.40;1.75;;;;;;;22.84;44.50;97268.84;10609772;27;20063;-72
2023/06/30 08:37:38;;;;;;;5.07;1.90;;;;;;;23.12;44.32;97274.16;10609611;27;20400;-72
2023/06/30 08:42:59;;;;;;;4.88;2.00;;;;;;;23.41;44.52;97277.28;10595449;27;20124;-73
2023/06/30 08:48:20;;;;;;;4.95;1.83;;;;;;;23.58;44.33;97278.88;10609211;27;20523;-73
2023/06/30 08:53:41;;;;;;;4.57;2.00;;;;;;;23.82;44.77;97291.91;10609436;27;20067;-73
2023/06/30 08:59:02;;;;;;;6.03;2.00;;;;;;;23.99;44.66;97282.06;10594780;27;20047;-73
2023/06/30 09:04:22;;;;;;;5.18;1.95;;;;;;;24.01;44.97;97273.53;10545574;27;20048;-72
2023/06/30 09:09:45;;;;;;;5.72;2.28;;;;;;;24.09;45.07;97273.59;10566355;28;20486;-73
2023/06/30 09:15:07;;;;;;;5.45;2.40;;;;;;;24.15;44.79;97287.91;10552268;28;20040;-73
2023/06/30 09:20:28;;;;;;;4.75;2.38;;;;;;;24.34;45.74;97296.59;10552393;28;20481;-73
2023/06/30 09:25:49;;;;;;;2.67;1.70;;;;;;;24.94;45.89;97284.06;10551850;28;20064;-73
2023/06/30 09:31:11;;;;;;;7.30;2.10;;;;;;;25.39;45.36;97276.34;10537720;28;20047;-73
2023/06/30 09:36:31;;;;;;;4.90;2.15;;;;;;;25.94;44.60;97274.25;10539446;28;20390;-72
2023/06/30 09:41:52;;;;;;;3.30;1.90;;;;;;;26.23;43.68;97274.22;10560364;28;20047;-73
2023/06/30 09:47:12;;;;;;;4.85;2.05;;;;;;;26.75;43.69;97264.09;10560207;28;20044;-73
2023/06/30 09:52:34;;;;;;;5.15;3.10;;;;;;;26.84;42.42;97261.91;10559736;28;20051;-73
2023/06/30 09:57:55;;;;;;;3.88;1.90;;;;;;;27.46;42.07;97263.72;10589079;28;20062;-73
2023/06/30 10:03:19;;;;;;;4.07;2.40;;;;;;;27.72;41.29;97273.59;10559142;28;20123;-73
2023/06/30 10:08:40;;;;;;;8.25;2.17;;;;;;;28.19;40.33;97262.44;10588647;28;20427;-73
2023/06/30 10:14:01;;;;;;;4.15;2.60;;;;;;;28.05;38.89;97257.53;10544957;28;20056;-73
2023/06/30 10:19:22;;;;;;;5.03;2.40;;;;;;;28.81;38.63;97268.94;10573083;28;20055;-73
2023/06/30 10:24:44;;;;;;;4.20;2.60;;;;;;;29.21;36.76;97269.88;10558734;28;20032;-73
2023/06/30 10:30:06;;;;;;;5.40;2.65;;;;;;;29.16;36.29;97272.13;10587380;28;20043;-73
2023/06/30 10:35:27;;;;;;;3.88;2.47;;;;;;;29.15;36.67;97273.56;10558307;28;20044;-73
2023/06/30 10:40:48;;;;;;;4.50;2.17;;;;;;;28.83;36.46;97266.03;10557777;28;20051;-73
2023/06/30 10:46:09;;;;;;;4.75;2.80;;;;;;;28.17;37.42;97271.75;10571928;28;20043;-73
2023/06/30 10:51:36;;;;;;;3.85;2.15;;;;;;;27.85;37.94;97260.59;10586199;28;20473;-72
2023/06/30 10:57:10;;;;;;;5.60;2.00;;;;;;;27.58;38.32;97260.75;10557083;28;20044;-72
2023/06/30 11:02:32;;;;;;;2.30;1.60;;;;;;;27.62;38.17;97254.31;10575221;27;20055;-73
2023/06/30 11:07:54;;;;;;;4.78;1.50;;;;;;;28.00;37.30;97255.44;10570413;27;20046;-73
2023/06/30 11:13:15;;;;;;;;;;;;;;;28.61;36.59;97235.44;10599083;27;20442;-73
2023/06/30 11:18:36;;;;;;;4.25;1.90;;;;;;;29.05;35.83;97239.94;10628313;27;19927;-73
2023/06/30 11:23:57;;;;;;;2.50;1.83;;;;;;;28.66;35.25;97241.84;10598463;27;20039;-73
2023/06/30 11:29:18;;;;;;;2.95;1.65;;;;;;;27.73;35.98;97237.75;10598228;27;20438;-73
2023/06/30 11:34:39;;;;;;;5.23;1.80;;;;;;;27.23;37.00;97225.91;10598150;27;20035;-73
2023/06/30 11:40:00;;;;;;;2.63;1.75;;;;;;;26.68;37.51;97223.31;10627556;27;20107;-73
2023/06/30 11:45:27;;;;;;;2.00;1.42;;;;;;;26.01;38.02;97222.78;10585327;27;20118;-73
2023/06/30 11:50:48;;;;;;;4.40;1.70;;;;;;;25.50;39.09;97214.22;10598171;27;20039;-73
2023/06/30 11:56:09;;;;;;;4.40;1.90;;;;;;;25.38;39.40;97212.06;10583014;27;20039;-73
2023/06/30 12:01:30;;;;;;;2.72;2.03;;;;;;;25.12;40.08;97221.31;10610834;27;20503;-73
2023/06/30 12:06:51;;;;;;;4.32;2.55;;;;;;;24.72;41.39;97219.75;10596715;27;20051;-72
2023/06/30 12:12:24;;;;;;;7.85;3.10;;;;;;;24.43;42.77;97209.66;10582346;27;20553;-73
2023/06/30 12:17:46;;;;;;;5.10;3.05;;;;;;;24.26;43.60;97201.00;10583706;27;20035;-73
2023/06/30 12:23:07;;;;;;;5.93;3.20;;;;;;;24.05;44.72;97202.31;10610442;27;20039;-73
2023/06/30 12:28:28;;;;;;;6.25;3.50;;;;;;;24.13;44.66;97205.22;10582054;27;20039;-73
2023/06/30 12:33:55;;;;;;;6.88;3.55;;;;;;;23.85;46.46;97197.19;10582088;27;20035;-73
2023/06/30 12:39:16;;;;;;;7.75;3.75;;;;;;;23.53;48.05;97202.63;10582299;27;20070;-73
2023/06/30 12:44:37;;;;;;;5.53;3.63;;;;;;;23.41;48.73;97186.16;10595693;27;20047;-73
2023/06/30 12:49:58;;;;;;;6.72;3.90;;;;;;;23.46;49.20;97196.19;10609303;27;20053;-73
2023/06/30 12:55:22;;;;;;;7.38;3.55;;;;;;;23.64;49.68;97192.75;10595016;27;20039;-73
2023/06/30 13:00:43;;;;;;;8.52;4.10;;;;;;;23.83;49.49;97187.91;10594510;27;20047;-73
2023/06/30 13:06:04;;;;;;;10.85;4.10;;;;;;;23.76;50.31;97189.31;10608264;27;20067;-73
2023/06/30 13:11:24;;;;;;;6.35;4.18;;;;;;;23.66;50.80;97184.25;10608271;27;20464;-73
2023/06/30 13:16:45;;;;;;;5.55;3.72;;;;;;;23.49;52.51;97188.34;10566026;27;20113;-73
2023/06/30 13:22:06;;;;;;;7.63;4.13;;;;;;;23.40;52.93;97181.88;10594242;28;20071;-73
2023/06/30 13:27:26;;;;;;;8.88;4.53;;;;;;;23.33;54.29;97169.00;10623739;28;20035;-73
2023/06/30 13:32:47;;;;;;;6.90;4.68;;;;;;;23.38;54.92;97159.09;10608265;28;20090;-72
2023/06/30 13:38:10;;;;;;;8.85;4.82;;;;;;;23.39;55.87;97146.28;10579742;28;20063;-72
2023/06/30 13:43:31;;;;;;;5.63;3.97;;;;;;;23.37;56.14;97146.97;10594084;28;20157;-73
2023/06/30 13:48:52;;;;;;;6.70;4.03;;;;;;;23.43;56.48;97140.59;10607990;28;20071;-73
2023/06/30 13:54:12;;;;;;;9.00;4.82;;;;;;;23.39;57.42;97126.34;10593538;28;20039;-73
2023/06/30 13:59:33;;;;;;;6.93;4.10;;;;;;;23.80;58.55;97121.66;10607864;28;20096;-73
2023/06/30 14:04:54;;;;;;;7.95;4.63;;;;;;;23.98;57.95;97103.94;10592881;28;20096;-73
2023/06/30 14:10:17;;;;;;;8.45;4.90;;;;;;;24.29;58.33;97107.59;10608004;28;20060;-72
2023/06/30 14:15:39;;;;;;;8.48;5.43;;;;;;;24.65;57.77;97094.91;10593332;28;20039;-73
2023/06/30 14:21:01;;;;;;;12.82;6.15;;;;;;;24.69;57.07;97098.47;10601832;28;20084;-73
2023/06/30 14:26:22;;;;;;;8.80;6.22;;;;;;;24.73;56.95;97098.47;10584779;27;20438;-73
2023/06/30 14:31:43;;;;;;;8.27;5.23;;;;;;;24.95;56.65;97117.06;10600723;27;20042;-73
2023/06/30 14:37:04;;;;;;;7.22;5.38;;;;;;;24.71;56.26;97115.63;10585975;27;20064;-73
2023/06/30 14:42:24;;;;;;;8.60;5.93;;;;;;;24.65;56.13;97127.00;10613721;27;20043;-72
2023/06/30 14:47:52;;;;;;;9.23;5.25;;;;;;;24.31;56.64;97124.00;10614953;27;20047;-72
2023/06/30 14:53:12;;;;;;;8.00;5.53;;;;;;;24.21;57.09;97125.41;10613667;27;20066;-72
2023/06/30 14:58:33;;;;;;;8.20;4.97;;;;;;;24.19;57.75;97139.66;10613615;27;20054;-72
2023/06/30 15:03:54;;;;;;;6.40;4.72;;;;;;;24.34;58.67;97139.75;10613422;27;20401;-73
2023/06/30 15:09:14;;;;;;;7.55;4.63;;;;;;;24.49;58.63;97129.81;10584846;27;20046;-73
2023/06/30 15:14:35;;;;;;;9.02;4.95;;;;;;;24.17;57.98;97131.09;10628759;27;20043;-73
2023/06/30 15:19:56;;;;;;;8.18;5.20;;;;;;;23.76;58.87;97135.16;10598644;27;20043;-73
2023/06/30 15:25:23;;;;;;;7.65;5.72;;;;;;;23.43;60.01;97135.63;10598517;27;20039;-72
2023/06/30 15:30:44;;;;;;;7.80;5.53;;;;;;;23.69;59.37;97145.81;10612909;27;20114;-73
2023/06/30 15:36:05;;;;;;;8.15;5.82;;;;;;;23.99;58.34;97137.41;10611922;27;20071;-73
2023/06/30 15:41:27;;;;;;;8.02;5.70;;;;;;;23.98;57.78;97146.69;10597778;27;20062;-72
2023/06/30 15:46:48;;;;;;;10.82;6.00;;;;;;;24.12;58.03;97141.03;10597972;27;20140;-72
2023/06/30 15:52:09;;;;;;;7.40;5.60;;;;;;;24.44;57.27;97136.94;10597330;27;20067;-73
2023/06/30 15:57:30;;;;;;;9.32;5.53;;;;;;;24.34;56.95;97140.47;10597019;27;20081;-73
2023/06/30 16:02:50;;;;;;;8.40;5.28;;;;;;;24.40;57.47;97140.47;10611500;27;20461;-73
2023/06/30 16:08:11;;;;;;;7.72;5.05;;;;;;;24.34;57.39;97129.06;10611002;27;20039;-73
2023/06/30 16:13:32;;;;;;;7.05;5.15;;;;;;;24.07;57.20;97138.88;10610688;27;20046;-72
2023/06/30 16:18:53;;;;;;;8.73;4.97;;;;;;;23.66;57.77;97136.53;10596411;27;20077;-73
2023/06/30 16:24:13;;;;;;;7.00;4.35;;;;;;;23.39;58.69;97134.88;10595799;27;20514;-72
2023/06/30 16:29:34;;;;;;;5.90;3.83;;;;;;;23.11;59.10;97144.63;10595869;27;20043;-73
2023/06/30 16:34:55;;;;;;;5.57;4.00;;;;;;;22.99;59.73;97150.22;10595537;27;20039;-72
2023/06/30 16:40:19;;;;;;;6.47;3.80;;;;;;;22.84;60.41;97135.13;10595727;27;20062;-73
2023/06/30 16:45:40;;;;;;;6.90;3.78;;;;;;;22.55;60.92;97128.41;10573117;27;20043;-73
2023/06/30 16:51:00;;;;;;;6.35;3.30;;;;;;;22.34;62.88;97131.72;10580970;27;20148;-73
2023/06/30 16:56:21;;;;;;;6.10;3.75;;;;;;;22.17;63.33;97130.81;10608983;27;20067;-72
2023/06/30 17:01:42;;;;;;;5.90;4.28;;;;;;;21.98;62.93;97132.69;10594671;27;20050;-73
2023/06/30 17:07:05;;;;;;;7.32;4.38;;;;;;;21.51;64.19;97151.19;10624120;27;20187;-73
2023/06/30 17:12:27;;;;;;;7.25;4.45;;;;;;;21.20;65.72;97155.63;10608648;27;20043;-73
2023/06/30 17:17:47;;;;;;;7.15;4.40;;;;;;;20.90;68.53;97164.34;10601152;27;20140;-73
2023/06/30 17:23:08;;;;;;;7.60;4.90;;;;;;;20.66;69.72;97159.69;10608384;28;20453;-73
2023/06/30 17:28:29;;;;;;;9.23;4.40;;;;;;;20.36;72.30;97171.09;10580024;28;20156;-73
2023/06/30 17:33:49;;;;;;;8.25;4.60;;;;;;;20.07;73.18;97181.13;10608061;28;20117;-72
2023/06/30 17:39:11;;;;;;;9.57;4.85;;;;;;;20.06;74.06;97176.13;10608327;28;20046;-73
2023/06/30 17:44:32;;;;;;;10.45;5.40;;;;;;;20.05;74.70;97171.88;10623687;28;20043;-72
2023/06/30 17:49:53;;;;;;;7.28;4.30;;;;;;;19.85;74.45;97167.19;10579235;28;20071;-72
2023/06/30 17:55:13;;;;;;;7.80;5.10;;;;;;;19.72;76.05;97166.22;10579615;28;20047;-72
2023/06/30 18:00:34;;;;;;;8.13;5.22;;;;;;;19.69;76.06;97166.88;10614816;27;20457;-72
2023/06/30 18:05:55;;;;;;;6.70;4.35;;;;;;;19.75;76.79;97180.41;10594729;27;20184;-73
2023/06/30 18:11:16;;;;;;;8.05;5.18;;;;;;;19.71;77.31;97169.72;10615512;27;20039;-72
2023/06/30 18:16:37;;;;;;;9.52;5.88;;;;;;;19.71;77.06;97170.44;10630925;27;20040;-72
2023/06/30 18:21:57;;;;;;;8.25;5.25;;;;;;;19.76;77.45;97164.88;10630701;27;20102;-72
2023/06/30 18:27:18;;;;;;;8.80;5.78;;;;;;;19.81;76.88;97157.91;10600655;27;20035;-73
2023/06/30 18:32:38;;;;;;;9.52;5.38;;;;;;;19.60;76.86;97165.25;10600615;27;20154;-72
2023/06/30 18:38:00;;;;;;;8.15;4.97;;;;;;;19.51;77.27;97174.91;10614680;27;20045;-72
2023/06/30 18:43:20;;;;;;;9.75;5.47;;;;;;;19.42;77.38;97174.00;10629897;27;20067;-73
2023/06/30 18:48:41;;;;;;;8.63;5.53;;;;;;;19.40;77.75;97166.19;10614131;27;20068;-72
2023/06/30 18:54:02;;;;;;;8.85;5.93;;;;;;;19.35;77.62;97152.59;10599708;27;20532;-73
2023/06/30 18:59:22;;;;;;;11.93;5.70;;;;;;;19.33;77.60;97161.03;10585245;27;20476;-73
2023/06/30 19:04:43;;;;;;;9.52;5.28;;;;;;;19.29;77.61;97160.91;10575877;27;20105;-72
2023/06/30 19:10:04;;;;;;;11.18;6.20;;;;;;;19.26;77.50;97159.44;10556260;28;20044;-72
2023/06/30 19:15:25;;;;;;;10.18;6.25;;;;;;;19.23;78.04;97169.28;10556715;28;20063;-73
2023/06/30 19:20:47;;;;;;;9.60;6.03;;;;;;;19.21;77.62;97172.78;10556371;28;20093;-72
2023/06/30 19:26:08;;;;;;;8.80;5.57;;;;;;;19.22;77.73;97179.16;10570411;28;20039;-72
2023/06/30 19:31:29;;;;;;;9.43;6.47;;;;;;;19.20;77.79;97190.41;10570067;28;20119;-73
2023/06/30 19:36:52;;;;;;;11.63;6.00;;;;;;;19.14;78.21;97203.03;10585247;28;20062;-72
2023/06/30 19:42:12;;;;;;;11.07;6.85;;;;;;;19.11;77.95;97207.19;10584833;28;20078;-73
2023/06/30 19:47:34;;;;;;;11.23;7.10;;;;;;;19.05;78.43;97209.84;10555555;28;20071;-72
2023/06/30 19:52:55;;;;;;;9.85;6.32;;;;;;;19.03;78.10;97206.25;10541310;28;20067;-73
2023/06/30 19:58:15;;;;;;;11.80;7.03;;;;;;;18.99;78.74;97225.94;10554850;28;20489;-72
2023/06/30 20:03:36;;;;;;;11.05;7.57;;;;;;;18.93;78.98;97226.50;10553822;27;20047;-73
2023/06/30 20:08:57;;;;;;;8.45;6.15;;;;;;;18.79;78.82;97223.28;10582404;27;20039;-72
2023/06/30 20:14:17;;;;;;;10.35;6.35;;;;;;;18.71;79.32;97225.91;10610779;27;20039;-73
2023/06/30 20:19:39;;;;;;;10.20;6.57;;;;;;;18.73;80.07;97223.88;10582153;27;20508;-72
2023/06/30 20:25:00;;;;;;;10.05;6.45;;;;;;;18.69;79.89;97206.06;10596191;27;20500;-72
2023/06/30 20:30:20;;;;;;;10.70;6.82;;;;;;;18.69;79.97;97203.94;10625560;27;20039;-72
2023/06/30 20:35:41;;;;;;;9.98;6.13;;;;;;;18.71;80.37;97191.97;10625458;27;20043;-72
2023/06/30 20:41:02;;;;;;;9.38;6.57;;;;;;;18.70;79.75;97194.09;10609937;27;20043;-72
2023/06/30 20:46:23;;;;;;;13.73;7.10;;;;;;;18.64;80.59;97205.22;10625223;27;20062;-72
2023/06/30 20:51:43;;;;;;;9.82;6.97;;;;;;;18.62;80.34;97193.13;10609823;27;20097;-72
2023/06/30 20:57:04;;;;;;;9.93;6.85;;;;;;;18.52;80.88;97188.63;10624649;27;20040;-72
2023/06/30 21:02:25;;;;;;;8.55;6.07;;;;;;;18.52;80.88;97194.28;10609132;27;20476;-72
2023/06/30 21:07:45;;;;;;;11.05;6.00;;;;;;;18.54;81.30;97188.69;10608505;27;20047;-73
2023/06/30 21:13:06;;;;;;;9.75;6.25;;;;;;;18.59;81.00;97183.88;10594355;27;20095;-72
2023/06/30 21:18:27;;;;;;;9.00;6.35;;;;;;;18.60;81.33;97193.78;10608672;27;20475;-71
2023/06/30 21:23:47;;;;;;;9.15;6.25;;;;;;;18.61;81.47;97183.91;10608680;28;20498;-72
2023/06/30 21:29:09;;;;;;;12.50;6.43;;;;;;;18.59;81.37;97178.94;10623606;28;20046;-71
2023/06/30 21:34:30;;;;;;;9.02;6.45;;;;;;;18.52;81.12;97188.63;10629270;27;20118;-71
2023/06/30 21:39:50;;;;;;;9.65;5.90;;;;;;;18.50;81.46;97185.75;10632680;27;20137;-71
2023/06/30 21:45:11;;;;;;;11.52;6.60;;;;;;;18.43;81.45;97192.63;10602561;27;20066;-71
2023/06/30 21:50:32;;;;;;;10.73;7.53;;;;;;;18.36;81.49;97185.38;10602415;27;20192;-80
2023/06/30 21:55:52;;;;;;;9.63;6.78;;;;;;;18.32;81.95;97182.41;10585378;27;20177;-75
2023/06/30 22:01:13;;;;;;;11.75;7.97;;;;;;;18.30;82.04;97171.78;10563656;27;20047;-75
2023/06/30 22:06:37;;;;;;;12.88;7.90;;;;;;;18.26;82.26;97168.84;10587091;27;20059;-75
2023/06/30 22:11:58;;;;;;;11.32;7.60;;;;;;;18.25;82.54;97178.00;10598635;27;20096;-75
2023/06/30 22:17:19;;;;;;;13.35;8.40;;;;;;;18.21;82.24;97177.84;10594257;27;20473;-74
2023/06/30 22:22:39;;;;;;;12.48;7.78;;;;;;;18.14;82.72;97170.59;10574110;27;20568;-77
2023/06/30 22:28:00;;;;;;;8.93;6.90;;;;;;;18.08;82.79;97171.16;10569703;27;20528;-73
2023/06/30 22:33:21;;;;;;;11.02;7.10;;;;;;;18.01;82.74;97173.06;10629099;27;20501;-73
2023/06/30 22:38:42;;;;;;;12.13;7.75;;;;;;;18.05;83.12;97168.91;10629252;27;20545;-78
2023/06/30 22:44:03;;;;;;;12.98;7.95;;;;;;;18.10;83.33;97182.50;10560867;27;20489;-79
2023/06/30 22:49:23;;;;;;;13.60;8.48;;;;;;;18.08;83.30;97176.06;10585256;27;20081;-74
2023/06/30 22:54:44;;;;;;;10.48;7.22;;;;;;;18.11;83.32;97186.03;10596860;27;20043;-80
2023/06/30 23:00:06;;;;;;;12.27;8.05;;;;;;;18.15;83.51;97180.53;10592546;27;20070;-73
2023/06/30 23:05:27;;;;;;;14.05;7.82;;;;;;;18.21;83.34;97175.03;10575444;27;20178;-75
2023/06/30 23:10:48;;;;;;;12.05;8.18;;;;;;;18.24;83.66;97176.56;10594354;27;20127;-75
2023/06/30 23:16:09;;;;;;;12.77;8.02;;;;;;;18.24;83.80;97170.91;10577416;27;20063;-74
2023/06/30 23:21:32;;;;;;;12.90;7.78;;;;;;;18.24;83.82;97173.72;10596303;27;20039;-74
2023/06/30 23:26:53;;;;;;;17.45;8.27;;;;;;;18.22;84.32;97176.47;10586427;27;20126;-75
2023/06/30 23:32:15;;;;;;;12.50;8.63;;;;;;;18.24;83.82;97176.56;10570068;28;20086;-75
2023/06/30 23:37:36;;;;;;;13.68;8.75;;;;;;;18.31;83.95;97169.66;10544104;27;20067;-76
2023/06/30 23:42:57;;;;;;;16.73;9.30;;;;;;;18.39;83.95;97180.47;10590074;27;20070;-75
2023/06/30 23:48:18;;;;;;;14.63;8.70;;;;;;;18.45;83.74;97172.91;10555481;28;20046;-75
2023/06/30 23:53:38;;;;;;;15.32;8.80;;;;;;;18.48;83.80;97177.22;10541170;27;20070;-75
2023/06/30 23:58:59;;;;;;;12.13;8.23;;;;;;;18.50;83.36;97180.09;10563262;28;20110;-75
